Time;durP1;ratioP1;P1;durP2;ratioP2;P2;SDS_P1;SDS_P2;PMS_P1;PMS_P2;Temp;Humidity;BMP_temperature;BMP_pressure;BME280_temperature;BME280_humidity;BME280_pressure;Samples;Min_cycle;Max_cycle;Signal;HPM_P1;HPM_P2
2022/01/24 00:01:15;;;;;;;7.80;5.13;;;;;;;0.55;100.00;101016.91;4826784;29;20208;-80
2022/01/24 00:03:42;;;;;;;7.23;4.70;;;;;;;0.63;100.00;101023.22;4840457;29;20213;-80
2022/01/24 00:06:12;;;;;;;9.80;5.13;;;;;;;0.51;100.00;101010.19;4826265;29;20201;-80
2022/01/24 00:08:39;;;;;;;6.47;4.87;;;;;;;0.61;100.00;101019.03;4841267;29;20197;-80
2022/01/24 00:11:10;;;;;;;6.57;4.20;;;;;;;0.44;100.00;101020.38;4826419;29;20253;-80
2022/01/24 00:16:33;;;;;;;6.17;4.60;;;;;;;0.51;100.00;101023.38;4841543;29;20191;-80
2022/01/24 00:27:01;;;;;;;7.77;4.90;;;;;;;0.36;100.00;101047.34;4842741;29;20197;-80
2022/01/24 00:29:27;;;;;;;6.50;4.40;;;;;;;0.32;100.00;101053.81;4826063;29;20204;-80
2022/01/24 00:31:55;;;;;;;6.50;4.53;;;;;;;0.07;100.00;101037.38;4825845;29;20208;-80
2022/01/24 00:34:25;;;;;;;7.37;4.50;;;;;;;0.18;100.00;101048.78;4826143;29;20495;-79
2022/01/24 00:36:53;;;;;;;6.27;4.83;;;;;;;0.16;100.00;101045.41;4826032;29;20233;-80
2022/01/24 00:39:21;;;;;;;8.77;4.80;;;;;;;0.07;100.00;101043.50;4833747;29;20229;-80
2022/01/24 00:47:18;;;;;;;7.83;5.23;;;;;;;-0.02;100.00;101046.84;4858948;29;20197;-79
2022/01/24 00:55:16;;;;;;;9.00;5.07;;;;;;;0.02;100.00;101044.78;4845680;29;20498;-80
2022/01/24 00:57:42;;;;;;;9.30;5.33;;;;;;;-0.08;100.00;101034.97;4859388;29;20519;-80
2022/01/24 01:00:09;;;;;;;6.40;4.73;;;;;;;0.00;100.00;101035.22;4859437;29;20250;-80
2022/01/24 01:02:36;;;;;;;6.40;5.10;;;;;;;0.04;100.00;101038.47;4844310;29;20203;-80
2022/01/24 01:06:03;;;;;;;8.77;5.30;;;;;;;0.16;100.00;101036.66;4844134;29;20586;-80
2022/01/24 01:18:34;;;;;;;8.27;5.43;;;;;;;-0.10;100.00;101031.63;4843688;29;20583;-81
2022/01/24 01:23:30;;;;;;;8.03;5.63;;;;;;;-0.11;100.00;101037.84;4859158;29;20564;-80
2022/01/24 01:25:59;;;;;;;8.00;5.53;;;;;;;-0.06;100.00;101038.34;4858776;29;20189;-80
2022/01/24 01:28:28;;;;;;;7.57;5.77;;;;;;;0.03;100.00;101034.16;4844828;29;20485;-80
2022/01/24 01:30:59;;;;;;;8.03;5.67;;;;;;;0.08;100.00;101024.09;4858942;29;20193;-80
2022/01/24 01:55:36;;;;;;;9.67;6.30;;;;;;;-0.05;100.00;101023.38;4857669;29;20258;-80
2022/01/24 01:58:14;;;;;;;10.33;6.47;;;;;;;-0.04;100.00;101025.03;4855354;29;20509;-80
2022/01/24 02:00:44;;;;;;;9.77;6.40;;;;;;;-0.08;100.00;101010.41;4843196;29;20197;-80
2022/01/24 02:03:11;;;;;;;8.17;6.20;;;;;;;-0.01;100.00;101017.75;4858269;29;20203;-80
2022/01/24 02:05:38;;;;;;;9.80;6.50;;;;;;;0.15;100.00;101013.91;4843077;29;20201;-80
2022/01/24 02:08:05;;;;;;;9.23;6.70;;;;;;;0.08;100.00;101021.47;4857941;29;20551;-81
2022/01/24 02:10:34;;;;;;;8.93;6.13;;;;;;;0.00;100.00;101005.41;4842959;29;20586;-80
2022/01/24 02:13:02;;;;;;;10.23;6.43;;;;;;;0.00;100.00;101011.50;4842905;29;20208;-80
2022/01/24 02:18:10;;;;;;;9.40;6.30;;;;;;;0.05;100.00;101021.69;4857940;29;20217;-80
2022/01/24 02:26:05;;;;;;;7.90;6.00;;;;;;;0.06;100.00;101018.09;4857475;29;20237;-80
2022/01/24 02:28:46;;;;;;;8.80;6.80;;;;;;;0.14;100.00;101020.16;4857732;29;20200;-81
2022/01/24 02:34:00;;;;;;;8.73;6.23;;;;;;;0.11;100.00;101015.94;4855710;29;20185;-80
2022/01/24 02:36:26;;;;;;;9.50;6.70;;;;;;;0.17;100.00;101019.91;4857846;29;20199;-80
2022/01/24 02:49:30;;;;;;;10.40;7.13;;;;;;;0.26;100.00;101006.00;4827108;29;20246;-80
2022/01/24 02:52:08;;;;;;;9.13;6.33;;;;;;;0.18;100.00;101001.34;4827137;29;20203;-80
2022/01/24 02:54:37;;;;;;;9.47;6.50;;;;;;;0.27;100.00;101007.69;4842164;29;20218;-80
2022/01/24 02:57:05;;;;;;;10.77;6.57;;;;;;;0.22;100.00;101013.31;4812086;29;20197;-80
2022/01/24 02:59:33;;;;;;;7.50;5.87;;;;;;;0.24;100.00;101008.75;4842070;29;20220;-80
2022/01/24 03:02:00;;;;;;;8.53;6.20;;;;;;;0.23;100.00;101008.88;4826889;29;20203;-80
2022/01/24 03:04:27;;;;;;;8.20;6.37;;;;;;;0.26;100.00;100998.94;4841936;29;20189;-80
2022/01/24 03:06:53;;;;;;;9.47;6.90;;;;;;;0.17;100.00;101004.94;4841571;29;20498;-80
2022/01/24 03:09:23;;;;;;;7.43;6.17;;;;;;;0.13;100.00;101002.66;4826969;29;20185;-80
2022/01/24 03:12:07;;;;;;;9.90;6.37;;;;;;;0.21;100.00;101022.19;4842201;29;20628;-80
2022/01/24 03:14:36;;;;;;;10.50;6.83;;;;;;;0.16;100.00;101036.66;4826920;29;20295;-80
2022/01/24 03:17:06;;;;;;;8.27;6.70;;;;;;;0.27;100.00;101020.88;4841935;29;20649;-80
2022/01/24 03:19:33;;;;;;;8.57;6.43;;;;;;;0.15;100.00;101024.44;4826571;29;20221;-81
2022/01/24 03:22:00;;;;;;;10.00;6.80;;;;;;;0.23;100.00;101019.44;4826737;29;20216;-80
2022/01/24 03:24:27;;;;;;;9.50;6.67;;;;;;;0.33;100.00;101031.75;4841778;29;20660;-80
2022/01/24 03:26:54;;;;;;;9.00;6.40;;;;;;;0.25;100.00;101022.78;4841726;29;20197;-80
2022/01/24 03:29:21;;;;;;;8.57;6.77;;;;;;;0.21;100.00;101026.59;4841620;29;20498;-80
2022/01/24 03:31:48;;;;;;;10.77;7.17;;;;;;;0.04;100.00;101027.09;4841941;29;20598;-80
2022/01/24 03:34:15;;;;;;;9.13;7.23;;;;;;;-0.07;100.00;101036.66;4826749;29;20501;-81
2022/01/24 03:36:42;;;;;;;10.53;7.50;;;;;;;-0.13;100.00;101046.81;4826575;29;20207;-80
2022/01/24 03:39:10;;;;;;;10.90;7.47;;;;;;;-0.18;100.00;101041.88;4847950;29;20248;-80
2022/01/24 03:41:39;;;;;;;10.40;7.53;;;;;;;-0.17;100.00;101042.72;4841550;29;20275;-80
2022/01/24 03:44:08;;;;;;;10.57;7.40;;;;;;;-0.25;100.00;101038.06;4856766;29;20189;-80
2022/01/24 03:49:46;;;;;;;8.53;7.13;;;;;;;-0.19;100.00;101048.13;4802399;29;20530;-80
2022/01/24 03:52:14;;;;;;;10.90;7.40;;;;;;;-0.25;100.00;101045.97;4855401;29;20196;-80
2022/01/24 03:54:43;;;;;;;8.73;7.03;;;;;;;-0.26;100.00;101052.19;4841658;29;20196;-80
2022/01/24 03:57:17;;;;;;;9.70;6.97;;;;;;;-0.23;100.00;101043.19;4856707;29;20253;-80
2022/01/24 03:59:44;;;;;;;11.43;8.07;;;;;;;-0.22;100.00;101050.13;4857117;29;20209;-80
2022/01/24 04:02:12;;;;;;;13.93;8.03;;;;;;;-0.22;100.00;101050.97;4841340;29;20276;-80
2022/01/24 04:04:40;;;;;;;13.40;8.27;;;;;;;-0.12;100.00;101049.34;4856770;29;20201;-80
2022/01/24 04:07:06;;;;;;;11.17;7.97;;;;;;;-0.09;100.00;101048.25;4856677;29;20215;-81
2022/01/24 04:09:34;;;;;;;11.90;8.13;;;;;;;-0.21;100.00;101042.13;4856695;29;20272;-80
2022/01/24 04:12:02;;;;;;;10.00;7.47;;;;;;;-0.33;100.00;101048.34;4856449;29;20576;-80
2022/01/24 04:14:42;;;;;;;10.03;8.10;;;;;;;-0.38;100.00;101047.84;4826251;29;20378;-80
2022/01/24 04:22:12;;;;;;;13.43;8.97;;;;;;;-0.46;100.00;101050.19;4859941;29;20578;-80
2022/01/24 04:24:39;;;;;;;13.77;8.97;;;;;;;-0.53;100.00;101049.81;4844905;29;20215;-80
2022/01/24 04:27:06;;;;;;;12.53;8.60;;;;;;;-0.56;100.00;101044.75;4844579;29;20197;-80
2022/01/24 04:29:33;;;;;;;11.73;9.40;;;;;;;-0.58;100.00;101048.47;4844880;29;20189;-80
2022/01/24 04:32:00;;;;;;;13.97;9.47;;;;;;;-0.53;100.00;101049.81;4844805;29;20540;-80
2022/01/24 04:34:27;;;;;;;13.90;9.37;;;;;;;-0.59;100.00;101057.31;4844730;29;20200;-80
2022/01/24 04:36:54;;;;;;;10.93;8.70;;;;;;;-0.18;100.00;101062.97;4844652;29;20234;-81
2022/01/24 04:39:21;;;;;;;11.23;9.70;;;;;;;-0.42;100.00;101054.25;4859236;29;20229;-80
2022/01/24 04:41:49;;;;;;;11.97;9.70;;;;;;;-0.48;100.00;101060.00;4859782;29;20201;-80
2022/01/24 04:54:51;;;;;;;13.03;10.63;;;;;;;-0.82;100.00;101071.34;4859020;29;20641;-81
2022/01/24 04:57:23;;;;;;;13.03;10.33;;;;;;;-0.82;100.00;101077.44;4859332;29;20205;-80
2022/01/24 04:59:52;;;;;;;16.17;10.70;;;;;;;-0.80;100.00;101078.19;4859571;29;20213;-80
2022/01/24 05:02:21;;;;;;;14.97;11.10;;;;;;;-0.71;100.00;101081.94;4844227;29;20208;-81
2022/01/24 05:04:48;;;;;;;13.67;11.40;;;;;;;-0.67;100.00;101086.00;4859386;29;20201;-81
2022/01/24 05:07:15;;;;;;;16.93;11.40;;;;;;;-0.82;100.00;101066.06;4843883;29;20207;-80
2022/01/24 05:12:26;;;;;;;16.90;11.57;;;;;;;-0.72;100.00;101094.25;4843997;29;20207;-81
2022/01/24 05:25:56;;;;;;;17.00;11.63;;;;;;;-0.50;100.00;101094.34;4859156;29;20265;-81
2022/01/24 05:28:23;;;;;;;15.83;10.60;;;;;;;-0.51;100.00;101095.28;4858979;29;20220;-80
2022/01/24 05:30:50;;;;;;;14.60;10.90;;;;;;;-0.51;100.00;101073.38;4858781;29;20203;-81
2022/01/24 05:33:17;;;;;;;15.40;11.07;;;;;;;-0.56;100.00;101094.78;4859199;29;20192;-81
2022/01/24 05:35:47;;;;;;;13.80;10.17;;;;;;;-0.54;100.00;101092.06;4844787;29;20203;-81
2022/01/24 05:38:14;;;;;;;15.20;10.30;;;;;;;-0.64;100.00;101083.16;4843368;29;20241;-80
2022/01/24 05:40:41;;;;;;;12.60;10.53;;;;;;;-0.64;100.00;101088.41;4828509;29;20204;-80
2022/01/24 05:43:08;;;;;;;14.73;11.30;;;;;;;-0.66;100.00;101080.66;4843830;29;20197;-81
2022/01/24 05:45:35;;;;;;;14.77;11.07;;;;;;;-0.65;100.00;101089.34;4828432;29;20205;-81
2022/01/24 05:48:03;;;;;;;15.03;11.40;;;;;;;-0.64;100.00;101093.69;4844502;29;20189;-81
2022/01/24 05:50:30;;;;;;;15.80;11.50;;;;;;;-0.61;100.00;101089.06;4843401;29;20193;-81
2022/01/24 05:52:57;;;;;;;15.10;11.50;;;;;;;-0.55;100.00;101085.94;4843325;29;20201;-81
2022/01/24 05:55:24;;;;;;;16.67;11.73;;;;;;;-0.51;100.00;101090.03;4827855;29;20224;-82
2022/01/24 05:57:53;;;;;;;15.03;11.57;;;;;;;-0.57;100.00;101094.91;4843519;29;20205;-81
2022/01/24 06:00:21;;;;;;;14.63;11.90;;;;;;;-0.56;100.00;101091.34;4828035;29;20321;-81
2022/01/24 06:02:48;;;;;;;14.97;11.60;;;;;;;-0.49;100.00;101105.72;4827062;29;20199;-81
2022/01/24 06:05:14;;;;;;;15.53;11.20;;;;;;;-0.55;100.00;101107.00;4828301;29;20670;-81
2022/01/24 06:07:41;;;;;;;16.07;12.93;;;;;;;-0.55;100.00;101098.25;4843578;29;20192;-81
2022/01/24 06:10:08;;;;;;;19.43;15.90;;;;;;;-0.47;100.00;101102.00;4844290;29;20232;-81
2022/01/24 06:12:35;;;;;;;17.80;16.00;;;;;;;-0.65;100.00;101084.94;4828168;29;20207;-80
2022/01/24 06:15:03;;;;;;;16.17;13.73;;;;;;;-0.60;100.00;101093.34;4828488;29;20208;-79
2022/01/24 06:17:30;;;;;;;17.93;13.50;;;;;;;-0.56;100.00;101093.97;4843267;29;20545;-81
2022/01/24 06:19:56;;;;;;;17.43;12.47;;;;;;;-0.53;100.00;101093.75;4828114;29;20224;-81
2022/01/24 06:22:23;;;;;;;17.50;12.47;;;;;;;-0.62;100.00;101092.63;4828025;29;20574;-82
2022/01/24 06:24:50;;;;;;;19.60;12.87;;;;;;;-0.60;100.00;101101.22;4827756;29;20211;-81
2022/01/24 06:27:36;;;;;;;17.13;13.13;;;;;;;-0.73;100.00;101096.97;4843255;29;20212;-81
2022/01/24 06:30:04;;;;;;;17.83;12.43;;;;;;;-0.59;100.00;101112.59;4842888;29;20189;-81
2022/01/24 06:32:30;;;;;;;16.73;13.07;;;;;;;-0.57;100.00;101114.19;4842956;29;20205;-81
2022/01/24 06:34:57;;;;;;;18.73;13.17;;;;;;;-0.60;100.00;101110.91;4827928;29;20192;-81
2022/01/24 06:37:23;;;;;;;16.27;11.83;;;;;;;-0.55;100.00;101108.78;4842782;29;20197;-80
2022/01/24 06:39:50;;;;;;;16.07;11.40;;;;;;;-0.81;100.00;101112.50;4854317;29;20651;-81
2022/01/24 06:42:22;;;;;;;15.73;12.07;;;;;;;-0.80;100.00;101122.06;4841815;29;20268;-81
2022/01/24 06:44:51;;;;;;;16.57;11.87;;;;;;;-0.67;100.00;101134.22;4858549;29;20612;-81
2022/01/24 06:47:17;;;;;;;16.20;11.47;;;;;;;-0.66;100.00;101129.81;4842789;29;20203;-80
2022/01/24 06:49:44;;;;;;;16.80;11.90;;;;;;;-0.85;100.00;101127.66;4857747;29;20193;-80
2022/01/24 06:52:13;;;;;;;16.47;12.67;;;;;;;-0.76;100.00;101137.53;4842652;29;20185;-81
2022/01/24 06:54:41;;;;;;;16.97;13.07;;;;;;;-0.79;100.00;101131.66;4857379;29;20199;-81
2022/01/24 06:57:11;;;;;;;18.33;13.13;;;;;;;-0.72;100.00;101146.03;4857901;29;20189;-80
2022/01/24 06:59:38;;;;;;;17.23;13.30;;;;;;;-0.69;100.00;101148.44;4827433;29;20708;-81
2022/01/24 07:02:06;;;;;;;19.47;13.20;;;;;;;-0.69;100.00;101140.53;4842519;29;20205;-80
2022/01/24 07:04:33;;;;;;;17.20;12.27;;;;;;;-0.68;100.00;101131.69;4842319;29;20273;-81
2022/01/24 07:06:59;;;;;;;17.53;12.50;;;;;;;-0.83;100.00;101122.28;4842425;29;20189;-81
2022/01/24 07:09:27;;;;;;;17.17;12.90;;;;;;;-0.68;100.00;101148.34;4842134;29;20227;-81
2022/01/24 07:11:53;;;;;;;16.97;12.23;;;;;;;-0.56;100.00;101147.44;4842481;29;20193;-81
2022/01/24 07:14:20;;;;;;;17.47;11.73;;;;;;;-0.59;100.00;101145.03;4857519;29;20200;-81
2022/01/24 07:19:28;;;;;;;17.70;12.07;;;;;;;-0.48;100.00;101162.69;4857320;29;20228;-80
2022/01/24 07:21:55;;;;;;;21.37;11.97;;;;;;;-0.62;100.00;101155.81;4842143;29;20491;-81
2022/01/24 07:24:23;;;;;;;16.30;11.73;;;;;;;-0.59;100.00;101160.00;4857573;29;20200;-81
2022/01/24 07:26:50;;;;;;;16.20;12.30;;;;;;;-0.62;100.00;101168.97;4842645;29;20599;-82
2022/01/24 07:29:17;;;;;;;18.50;13.33;;;;;;;-0.59;100.00;101179.25;4857117;29;20207;-81
2022/01/24 07:31:46;;;;;;;18.10;12.83;;;;;;;-0.52;100.00;101175.25;4841836;29;20217;-81
2022/01/24 07:34:14;;;;;;;18.57;13.30;;;;;;;-0.36;100.00;101177.59;4856974;29;20603;-81
2022/01/24 07:36:41;;;;;;;20.13;13.57;;;;;;;-0.36;100.00;101188.13;4841972;29;20278;-81
2022/01/24 07:39:11;;;;;;;17.33;13.63;;;;;;;-0.43;100.00;101173.75;4856495;29;20281;-81
2022/01/24 07:41:44;;;;;;;19.17;14.07;;;;;;;-0.50;100.00;101178.59;4856998;29;20228;-81
2022/01/24 07:44:16;;;;;;;18.53;14.53;;;;;;;-0.36;100.00;101184.66;4842993;29;20522;-81
2022/01/24 07:46:43;;;;;;;23.23;13.83;;;;;;;-0.37;100.00;101183.81;4842884;29;20189;-81
2022/01/24 07:49:12;;;;;;;19.83;15.17;;;;;;;-0.27;100.00;101200.63;4841704;29;20500;-81
2022/01/24 07:51:40;;;;;;;21.57;16.30;;;;;;;-0.21;100.00;101202.81;4826875;29;20530;-81
2022/01/24 07:54:08;;;;;;;18.00;13.50;;;;;;;-0.09;100.00;101204.53;4829800;29;20201;-80
2022/01/24 07:56:36;;;;;;;18.00;12.73;;;;;;;-0.18;100.00;101204.38;4830305;29;20284;-81
2022/01/24 07:59:03;;;;;;;18.27;13.00;;;;;;;-0.21;100.00;101218.63;4830133;29;20606;-81
2022/01/24 08:01:30;;;;;;;18.37;13.47;;;;;;;-0.23;100.00;101219.66;4829750;29;20205;-81
2022/01/24 08:03:58;;;;;;;16.77;12.90;;;;;;;-0.13;100.00;101224.16;4845257;29;20221;-80
2022/01/24 08:06:25;;;;;;;17.20;12.43;;;;;;;-0.22;100.00;101222.19;4844938;29;20208;-80
2022/01/24 08:08:51;;;;;;;18.13;13.57;;;;;;;-0.23;100.00;101223.16;4830343;29;20197;-82
2022/01/24 08:11:19;;;;;;;17.40;13.40;;;;;;;-0.14;100.00;101230.38;4817181;29;20545;-81
2022/01/24 08:13:46;;;;;;;19.37;13.83;;;;;;;-0.26;100.00;101233.91;4831689;29;20203;-82
2022/01/24 08:16:14;;;;;;;21.77;15.13;;;;;;;-0.30;100.00;101231.63;4831866;29;20695;-82
2022/01/24 08:18:41;;;;;;;20.30;15.63;;;;;;;-0.33;100.00;101211.63;4845242;29;20279;-81
2022/01/24 08:21:08;;;;;;;23.57;17.23;;;;;;;-0.16;100.00;101244.63;4844890;29;20217;-81
2022/01/24 08:23:35;;;;;;;23.80;17.73;;;;;;;-0.15;100.00;101241.88;4829669;29;20295;-81
2022/01/24 08:26:03;;;;;;;24.03;17.57;;;;;;;-0.11;100.00;101248.59;4844883;29;20225;-83
2022/01/24 08:28:30;;;;;;;22.10;16.13;;;;;;;-0.05;100.00;101244.69;4829503;29;20400;-81
2022/01/24 08:30:56;;;;;;;21.77;15.43;;;;;;;0.00;100.00;101237.28;4829449;29;20246;-81
2022/01/24 08:33:23;;;;;;;21.87;16.00;;;;;;;0.16;100.00;101250.16;4845064;29;20375;-81
2022/01/24 08:35:51;;;;;;;21.03;16.23;;;;;;;0.21;100.00;101259.41;4844925;29;20273;-81
2022/01/24 08:38:23;;;;;;;20.90;15.90;;;;;;;0.26;100.00;101256.44;4829577;29;20317;-81
2022/01/24 08:40:54;;;;;;;22.13;15.80;;;;;;;0.22;100.00;101255.81;4814590;29;20217;-82
2022/01/24 08:43:38;;;;;;;27.37;17.00;;;;;;;0.33;100.00;101270.81;4844774;29;20182;-82
2022/01/24 08:46:06;;;;;;;23.07;15.90;;;;;;;0.27;100.00;101253.69;4844434;29;20204;-81
2022/01/24 08:48:34;;;;;;;20.73;15.20;;;;;;;0.33;100.00;101265.56;4844757;29;20235;-82
2022/01/24 08:51:02;;;;;;;19.37;15.50;;;;;;;0.28;100.00;101249.25;4829236;29;20254;-81
2022/01/24 08:53:31;;;;;;;22.10;16.13;;;;;;;0.33;100.00;101265.56;4829262;29;20197;-81
2022/01/24 08:56:00;;;;;;;21.03;14.97;;;;;;;0.33;100.00;101255.84;4829034;29;20617;-81
2022/01/24 08:58:28;;;;;;;22.83;15.97;;;;;;;0.36;100.00;101260.06;4844501;29;20225;-81
2022/01/24 09:00:54;;;;;;;20.70;15.20;;;;;;;0.32;100.00;101258.63;4828909;29;20266;-81
2022/01/24 09:03:22;;;;;;;21.80;16.07;;;;;;;0.41;100.00;101268.47;4828100;29;20590;-81
2022/01/24 09:05:52;;;;;;;19.47;15.30;;;;;;;0.37;100.00;101269.66;4828288;29;20288;-82
2022/01/24 09:08:19;;;;;;;22.97;15.53;;;;;;;0.46;100.00;101282.16;4845316;29;20231;-82
2022/01/24 09:10:47;;;;;;;20.17;15.87;;;;;;;0.40;100.00;101264.16;4829209;29;20200;-81
2022/01/24 09:13:14;;;;;;;20.70;15.83;;;;;;;0.41;100.00;101274.59;4829203;29;20208;-82
2022/01/24 09:15:41;;;;;;;23.70;16.37;;;;;;;0.50;100.00;101280.97;4844895;29;20272;-80
2022/01/24 09:18:08;;;;;;;20.90;16.03;;;;;;;0.47;100.00;101275.91;4844940;29;20296;-81
2022/01/24 09:20:38;;;;;;;21.90;16.30;;;;;;;0.49;100.00;101291.63;4845819;29;20292;-82
2022/01/24 09:23:06;;;;;;;22.03;16.07;;;;;;;0.46;100.00;101286.59;4845557;29;20597;-81
2022/01/24 09:25:34;;;;;;;22.90;16.63;;;;;;;0.55;100.00;101299.94;4844368;29;20620;-82
2022/01/24 09:28:02;;;;;;;20.13;15.80;;;;;;;0.62;100.00;101300.28;4827991;29;20193;-81
2022/01/24 09:30:30;;;;;;;22.53;16.33;;;;;;;0.64;100.00;101304.53;4829776;29;20197;-81
2022/01/24 09:32:56;;;;;;;19.20;14.73;;;;;;;0.52;100.00;101292.22;4843315;29;20205;-81
2022/01/24 09:35:23;;;;;;;20.40;14.63;;;;;;;0.67;100.00;101293.72;4828921;29;20193;-81
2022/01/24 09:37:50;;;;;;;19.43;15.63;;;;;;;0.57;100.00;101282.19;4844509;29;20261;-81
2022/01/24 09:40:17;;;;;;;21.00;15.87;;;;;;;0.59;100.00;101285.56;4848785;29;20243;-82
2022/01/24 09:42:45;;;;;;;41.07;16.07;;;;;;;0.67;100.00;101285.81;4828248;29;20523;-82
2022/01/24 09:45:14;;;;;;;22.80;16.03;;;;;;;0.71;100.00;101283.78;4830592;29;20193;-82
2022/01/24 09:47:41;;;;;;;21.13;15.83;;;;;;;0.71;100.00;101289.06;4828509;29;20280;-82
2022/01/24 09:50:12;;;;;;;23.70;16.20;;;;;;;0.74;100.00;101281.78;4843221;29;20193;-81
2022/01/24 09:52:41;;;;;;;29.13;22.10;;;;;;;0.79;100.00;101274.31;4843839;29;20189;-81
2022/01/24 09:55:08;;;;;;;48.70;34.10;;;;;;;0.88;100.00;101288.63;4812932;29;20288;-81
2022/01/24 09:57:36;;;;;;;34.53;24.23;;;;;;;0.88;100.00;101291.25;4813258;29;20197;-81
2022/01/24 10:00:05;;;;;;;21.97;16.30;;;;;;;0.84;100.00;101284.53;4828000;29;20217;-81
2022/01/24 10:02:37;;;;;;;22.10;15.17;;;;;;;0.86;100.00;101278.19;4829026;29;20185;-81
2022/01/24 10:05:20;;;;;;;19.43;16.17;;;;;;;0.95;100.00;101279.28;4843157;29;20193;-81
2022/01/24 10:07:52;;;;;;;22.77;17.73;;;;;;;1.10;100.00;101285.16;4843408;29;20189;-82
2022/01/24 10:10:50;;;;;;;20.30;15.77;;;;;;;1.18;100.00;101294.16;4843057;29;20184;-81
2022/01/24 10:16:43;;;;;;;24.67;18.43;;;;;;;1.31;100.00;101280.84;4843027;29;20253;-81
2022/01/24 10:19:19;;;;;;;21.87;15.67;;;;;;;1.25;100.00;101289.25;4843197;29;20185;-81
2022/01/24 10:22:03;;;;;;;26.57;18.77;;;;;;;1.20;100.00;101278.22;4829829;29;20562;-81
2022/01/24 10:24:44;;;;;;;23.60;17.40;;;;;;;1.29;100.00;101278.34;4827585;29;20284;-82
2022/01/24 10:27:20;;;;;;;20.87;16.97;;;;;;;1.30;100.00;101280.03;4828026;29;20219;-81
2022/01/24 10:29:47;;;;;;;22.50;17.83;;;;;;;1.40;100.00;101268.75;4842709;29;20498;-81
2022/01/24 10:32:30;;;;;;;23.90;18.13;;;;;;;1.41;100.00;101262.47;4843945;29;20268;-82
2022/01/24 10:35:26;;;;;;;22.53;17.83;;;;;;;1.42;100.00;101269.44;4843031;29;20208;-81
2022/01/24 10:41:16;;;;;;;24.97;18.37;;;;;;;1.50;100.00;101267.88;4841569;29;20225;-81
2022/01/24 10:43:44;;;;;;;29.20;20.80;;;;;;;1.57;100.00;101255.88;4841752;29;20181;-82
2022/01/24 10:46:12;;;;;;;22.90;17.93;;;;;;;1.55;100.00;101246.38;4827622;29;20199;-82
2022/01/24 10:48:42;;;;;;;25.10;18.43;;;;;;;1.69;100.00;101269.88;4843045;29;20193;-82
2022/01/24 10:51:11;;;;;;;20.00;16.60;;;;;;;1.76;100.00;101274.56;4842708;29;20197;-82
2022/01/24 10:53:39;;;;;;;20.77;17.33;;;;;;;1.75;100.00;101272.03;4843035;29;20188;-82
2022/01/24 10:56:29;;;;;;;19.30;15.27;;;;;;;1.58;100.00;101276.06;4842678;29;20189;-81
2022/01/24 10:59:11;;;;;;;19.27;15.23;;;;;;;1.66;100.00;101280.72;4828105;29;20483;-82
2022/01/24 11:01:40;;;;;;;18.77;14.50;;;;;;;1.55;100.00;101262.22;4843804;29;20205;-82
2022/01/24 11:04:15;;;;;;;20.07;15.00;;;;;;;1.51;100.00;101276.63;4842637;29;20559;-82
2022/01/24 11:06:45;;;;;;;20.27;16.20;;;;;;;1.50;100.00;101262.59;4842504;29;20209;-82
2022/01/24 11:09:15;;;;;;;24.40;16.73;;;;;;;1.64;100.00;101266.78;4826125;29;20217;-83
2022/01/24 11:11:42;;;;;;;23.23;17.30;;;;;;;1.68;100.00;101268.22;4842811;29;20249;-82
2022/01/24 11:14:12;;;;;;;23.43;16.27;;;;;;;1.73;100.00;101260.75;4842467;29;20189;-82
2022/01/24 11:16:40;;;;;;;22.07;17.47;;;;;;;1.70;100.00;101246.00;4827705;29;20189;-82
2022/01/24 11:19:15;;;;;;;21.17;16.80;;;;;;;1.88;100.00;101261.31;4842819;29;20197;-82
2022/01/24 11:21:44;;;;;;;21.27;16.87;;;;;;;1.92;100.00;101257.44;4842522;29;20228;-82
2022/01/24 11:24:17;;;;;;;21.37;16.67;;;;;;;1.98;100.00;101249.88;4812489;29;20205;-82
2022/01/24 11:26:46;;;;;;;21.33;16.03;;;;;;;2.07;100.00;101250.94;4827864;29;20266;-82
2022/01/24 11:29:13;;;;;;;22.47;17.03;;;;;;;2.13;100.00;101253.91;4842376;29;20220;-82
2022/01/24 11:31:55;;;;;;;21.50;16.27;;;;;;;2.26;100.00;101247.59;4842702;29;20193;-82
2022/01/24 11:34:33;;;;;;;19.27;15.50;;;;;;;2.27;100.00;101239.56;4843117;29;20201;-82
2022/01/24 11:37:00;;;;;;;23.07;16.33;;;;;;;2.27;100.00;101242.19;4828010;29;20243;-81
2022/01/24 11:39:27;;;;;;;18.43;15.40;;;;;;;2.32;100.00;101244.47;4825396;29;20233;-81
2022/01/24 11:41:54;;;;;;;22.50;16.27;;;;;;;2.27;100.00;101239.56;4836682;29;20202;-82
2022/01/24 11:44:22;;;;;;;23.17;16.43;;;;;;;2.18;100.00;101220.00;4823230;29;20198;-83
2022/01/24 11:46:52;;;;;;;21.53;15.87;;;;;;;2.30;100.00;101227.88;4822039;29;20614;-82
2022/01/24 11:49:38;;;;;;;19.70;16.10;;;;;;;2.34;100.00;101227.47;4802321;29;20278;-82
2022/01/24 11:52:14;;;;;;;21.60;16.77;;;;;;;2.40;100.00;101244.66;4824538;29;20265;-82
2022/01/24 11:57:13;;;;;;;21.03;16.33;;;;;;;2.39;100.00;101227.94;4809296;29;20220;-82
2022/01/24 11:59:40;;;;;;;21.47;16.43;;;;;;;2.43;100.00;101224.06;4809145;29;20210;-82
2022/01/24 12:02:09;;;;;;;21.13;16.37;;;;;;;2.46;100.00;101223.00;4809441;29;20278;-82
2022/01/24 12:04:56;;;;;;;20.83;16.10;;;;;;;2.61;100.00;101230.44;4824634;29;20197;-81
2022/01/24 12:07:32;;;;;;;21.10;15.93;;;;;;;2.66;100.00;101225.63;4825476;29;20185;-81
2022/01/24 12:10:24;;;;;;;24.10;16.83;;;;;;;2.72;100.00;101224.25;4825625;29;20591;-82
2022/01/24 12:12:56;;;;;;;24.07;18.27;;;;;;;2.76;100.00;101227.47;4811409;29;20194;-81
2022/01/24 12:15:38;;;;;;;26.70;22.63;;;;;;;2.73;100.00;101227.75;4811538;29;20201;-82
2022/01/24 12:18:29;;;;;;;24.47;19.90;;;;;;;2.74;100.00;101232.09;4810715;29;20210;-80
2022/01/24 12:21:01;;;;;;;24.40;16.90;;;;;;;2.80;100.00;101231.56;4808644;29;20225;-82
2022/01/24 12:23:32;;;;;;;21.83;16.77;;;;;;;2.80;100.00;101224.44;4826499;29;20213;-82
2022/01/24 12:26:13;;;;;;;24.60;16.50;;;;;;;2.69;100.00;101231.63;4827422;29;20251;-82
2022/01/24 12:28:44;;;;;;;21.83;16.50;;;;;;;2.73;100.00;101227.75;4810909;29;20486;-81
2022/01/24 12:31:48;;;;;;;21.13;17.00;;;;;;;2.67;100.00;101216.72;4826334;29;20212;-81
2022/01/24 12:34:18;;;;;;;21.57;16.30;;;;;;;2.70;100.00;101218.28;4800966;29;20244;-82
2022/01/24 12:36:53;;;;;;;23.30;16.80;;;;;;;2.81;100.00;101212.03;4811791;29;20205;-81
2022/01/24 12:39:20;;;;;;;24.40;17.43;;;;;;;2.89;100.00;101221.00;4813371;29;20237;-81
2022/01/24 12:41:51;;;;;;;21.00;15.90;;;;;;;2.89;100.00;101221.00;4815410;29;20310;-81
2022/01/24 12:47:06;;;;;;;22.73;17.47;;;;;;;2.59;100.00;101219.19;4845080;29;20387;-81
2022/01/24 12:49:33;;;;;;;24.20;17.27;;;;;;;2.48;100.00;101215.75;4830626;29;20270;-81
2022/01/24 12:52:05;;;;;;;23.10;17.70;;;;;;;2.43;100.00;101216.13;4832858;29;20194;-82
2022/01/24 12:54:34;;;;;;;21.17;17.07;;;;;;;2.42;100.00;101211.00;4831965;29;20178;-82
2022/01/24 12:57:05;;;;;;;22.37;17.43;;;;;;;2.39;100.00;101213.88;4815295;29;20198;-81
2022/01/24 12:59:33;;;;;;;22.97;16.63;;;;;;;2.28;100.00;101206.00;4815859;29;20194;-82
2022/01/24 13:02:02;;;;;;;22.30;17.20;;;;;;;2.42;100.00;101200.41;4815893;29;20313;-82
2022/01/24 13:04:35;;;;;;;23.93;17.63;;;;;;;2.40;100.00;101202.34;4830636;29;20210;-82
2022/01/24 13:07:02;;;;;;;20.53;17.27;;;;;;;2.45;100.00;101214.22;4830332;29;20182;-82
2022/01/24 13:09:29;;;;;;;23.57;18.13;;;;;;;2.44;100.00;101198.47;4829900;29;20497;-82
2022/01/24 13:12:00;;;;;;;22.07;17.47;;;;;;;2.52;100.00;101203.97;4829351;29;20202;-82
2022/01/24 13:25:26;;;;;;;24.03;18.00;;;;;;;2.47;100.00;101211.44;4813159;29;20198;-82
2022/01/24 13:28:08;;;;;;;23.20;17.77;;;;;;;2.40;100.00;101199.69;4827809;29;20210;-82
2022/01/24 13:30:40;;;;;;;24.33;18.50;;;;;;;2.30;100.00;101206.72;4812646;29;20182;-82
2022/01/24 13:33:10;;;;;;;24.37;18.00;;;;;;;2.21;100.00;101206.53;4812596;29;20202;-82
2022/01/24 13:35:39;;;;;;;22.73;17.23;;;;;;;2.23;100.00;101203.75;4826868;29;20198;-81
2022/01/24 13:38:19;;;;;;;20.57;17.07;;;;;;;2.13;100.00;101200.19;4813470;29;20198;-82